Rockwood, Maine
Current Conditions -  °F | °C
As of 10:53 PM on Friday 24 Oct 2014 (Local Time) from KMLT Reporting Station
Light Rain Light Rain  
Wind Chill: 39°   Ceiling: 2900
Heat Index: 44°   Visibility: 8mi
Dew Point: 41°   Wind: 9mph
Humidity: 89%   Direction: 340°NNW
Pressure: 29.67"   Gusts: NA
Location:  45.68°N, 69.74°W
Report Text: KMLT 250253Z AUTO 34008KT 8SM -RA OVC029 07/05 A2967 RMK AO2 RAB11 SLP055 P0002 60002 T00670050 58005
Loading
Personal Weather Stations






























Interactive Weather Map New forecast layout! Learn more

10-Day Weather Forecast

Advertisements
Track Severe Weather on mobile